Time;durP1;ratioP1;P1;durP2;ratioP2;P2;SDS_P1;SDS_P2;PMS_P1;PMS_P2;Temp;Humidity;BMP_temperature;BMP_pressure;BME280_temperature;BME280_humidity;BME280_pressure;Samples;Min_cycle;Max_cycle;Signal;HPM_P1;HPM_P2
2023/10/13 00:00:29;;;;;;;2.30;1.80;;;14.50;99.90;;;;;;5056090;28;20044;-78
2023/10/13 00:03:00;;;;;;;3.85;2.97;;;14.50;99.90;;;;;;5053565;28;20047;-79
2023/10/13 00:05:33;;;;;;;7.68;2.53;;;14.60;99.90;;;;;;5051572;28;20395;-79
2023/10/13 00:08:03;;;;;;;5.55;3.33;;;14.60;99.90;;;;;;5048002;28;20037;-78
2023/10/13 00:10:35;;;;;;;4.32;2.92;;;14.60;99.90;;;;;;5055850;28;20112;-78
2023/10/13 00:13:15;;;;;;;5.30;2.55;;;14.70;99.90;;;;;;5055099;28;20064;-78
2023/10/13 00:15:57;;;;;;;3.03;2.20;;;14.70;99.90;;;;;;5055139;28;20052;-78
2023/10/13 00:18:33;;;;;;;2.17;1.90;;;14.90;99.90;;;;;;5054425;28;20041;-79
2023/10/13 00:20:59;;;;;;;2.58;2.35;;;14.70;99.90;;;;;;5055272;28;20041;-79
2023/10/13 00:23:27;;;;;;;2.47;2.28;;;14.80;99.90;;;;;;5055793;28;20041;-78
2023/10/13 00:25:59;;;;;;;3.00;2.17;;;14.80;99.90;;;;;;5054384;28;20044;-78
2023/10/13 00:28:35;;;;;;;2.15;1.95;;;14.80;99.90;;;;;;5052506;28;20041;-77
2023/10/13 00:31:10;;;;;;;5.05;2.67;;;14.80;99.90;;;;;;5053067;28;20053;-77
2023/10/13 00:33:37;;;;;;;5.38;1.80;;;14.80;99.90;;;;;;5060716;28;20094;-78
2023/10/13 00:36:04;;;;;;;3.42;1.30;;;14.90;99.90;;;;;;5053759;28;20097;-77
2023/10/13 00:38:30;;;;;;;1.90;1.55;;;14.90;99.90;;;;;;5053928;28;20033;-77
2023/10/13 00:41:03;;;;;;;1.85;1.58;;;14.90;99.90;;;;;;5054373;28;20118;-77
2023/10/13 00:43:32;;;;;;;7.75;3.85;;;16.10;99.90;;;;;;5054289;28;20048;-78
2023/10/13 00:48:34;;;;;;;6.97;2.25;;;15.10;99.90;;;;;;5057850;28;20053;-77
2023/10/13 00:51:07;;;;;;;2.30;1.45;;;15.20;99.90;;;;;;5058201;28;20053;-78
2023/10/13 00:53:39;;;;;;;3.55;2.25;;;15.20;99.90;;;;;;5057274;28;20040;-79
2023/10/13 00:56:27;;;;;;;2.50;2.30;;;15.20;99.90;;;;;;5057071;28;20052;-78
2023/10/13 00:58:57;;;;;;;3.63;2.30;;;15.20;99.90;;;;;;5050033;28;20037;-78
2023/10/13 01:01:32;;;;;;;4.05;2.42;;;15.20;99.90;;;;;;5055557;28;20143;-79
2023/10/13 01:03:59;;;;;;;3.00;2.17;;;15.30;99.90;;;;;;5050031;28;20055;-78
2023/10/13 01:06:26;;;;;;;5.03;2.78;;;15.30;99.90;;;;;;5059734;28;20053;-78
2023/10/13 01:09:17;;;;;;;5.88;2.30;;;15.30;99.90;;;;;;5057637;28;20087;-78
2023/10/13 01:11:51;;;;;;;2.78;2.53;;;15.40;99.90;;;;;;5046728;28;20510;-77
2023/10/13 01:14:18;;;;;;;3.67;2.78;;;15.60;99.90;;;;;;5057798;28;20049;-78
2023/10/13 01:16:45;;;;;;;1.23;1.05;;;15.50;99.90;;;;;;5057465;28;20071;-77
2023/10/13 01:19:21;;;;;;;1.13;1.05;;;15.70;99.90;;;;;;5057183;28;20040;-77
2023/10/13 01:21:50;;;;;;;2.15;1.95;;;15.60;99.90;;;;;;5056227;28;20091;-78
2023/10/13 01:24:19;;;;;;;1.63;1.52;;;15.60;99.90;;;;;;5056076;28;20398;-78
2023/10/13 01:26:44;;;;;;;3.75;2.13;;;15.70;99.90;;;;;;5056249;28;20099;-77
2023/10/13 01:29:14;;;;;;;3.13;2.22;;;15.80;99.90;;;;;;5056580;28;20049;-77
2023/10/13 01:31:45;;;;;;;4.50;2.63;;;15.70;99.90;;;;;;5056819;28;20048;-78
2023/10/13 01:34:23;;;;;;;4.85;2.75;;;15.80;99.90;;;;;;5053828;28;20041;-78
2023/10/13 01:36:53;;;;;;;3.00;1.15;;;15.90;99.90;;;;;;5056039;28;20072;-78
2023/10/13 01:39:28;;;;;;;2.90;2.25;;;15.90;99.90;;;;;;5062738;28;20508;-77
2023/10/13 01:41:57;;;;;;;1.55;1.38;;;15.90;99.90;;;;;;5054762;28;20048;-78
2023/10/13 01:44:33;;;;;;;1.65;1.55;;;15.90;99.90;;;;;;5056456;28;20080;-78
2023/10/13 01:46:59;;;;;;;1.65;1.52;;;15.90;99.90;;;;;;5056517;28;20096;-78
2023/10/13 01:49:28;;;;;;;4.97;2.67;;;16.00;99.90;;;;;;5055781;28;20570;-77
2023/10/13 01:51:53;;;;;;;3.10;1.75;;;16.00;99.90;;;;;;5056144;28;20107;-78
2023/10/13 01:54:21;;;;;;;1.73;1.60;;;16.00;99.90;;;;;;5055250;28;20041;-78
2023/10/13 01:56:48;;;;;;;0.80;0.80;;;16.10;99.90;;;;;;5056251;28;20128;-79
2023/10/13 01:59:15;;;;;;;1.70;1.10;;;16.00;99.90;;;;;;5056261;28;20049;-80
2023/10/13 02:01:41;;;;;;;2.88;1.88;;;16.00;99.90;;;;;;5056270;28;20103;-79
2023/10/13 02:04:10;;;;;;;1.08;0.90;;;16.10;99.90;;;;;;5054402;28;20037;-79
2023/10/13 02:06:36;;;;;;;1.92;1.63;;;16.10;99.90;;;;;;5056467;28;20049;-78
2023/10/13 02:09:16;;;;;;;3.20;2.15;;;16.10;99.90;;;;;;5057845;28;20045;-80
2023/10/13 02:11:47;;;;;;;2.05;1.50;;;16.00;99.90;;;;;;5060342;28;20091;-82
2023/10/13 02:14:17;;;;;;;2.25;2.05;;;16.00;99.90;;;;;;5057167;28;20079;-78
2023/10/13 02:16:46;;;;;;;2.17;1.63;;;16.00;99.90;;;;;;5057283;28;20044;-78
2023/10/13 02:19:15;;;;;;;1.08;0.77;;;16.00;99.90;;;;;;5057278;28;20090;-78
2023/10/13 02:21:43;;;;;;;1.58;1.23;;;15.90;99.90;;;;;;5057974;28;20044;-78
2023/10/13 02:24:13;;;;;;;1.73;1.48;;;16.00;99.90;;;;;;5048197;28;20045;-78
2023/10/13 02:26:40;;;;;;;1.90;1.67;;;16.00;99.90;;;;;;5056446;28;20401;-77
2023/10/13 02:29:12;;;;;;;1.65;1.02;;;16.00;99.90;;;;;;5056378;28;20065;-78
2023/10/13 02:31:40;;;;;;;1.65;1.42;;;16.00;99.90;;;;;;5055932;28;20049;-77
2023/10/13 02:34:12;;;;;;;6.43;1.23;;;16.00;99.90;;;;;;5053511;28;20068;-78
2023/10/13 02:36:54;;;;;;;2.28;1.45;;;16.00;99.90;;;;;;5055654;28;20059;-79
2023/10/13 02:39:32;;;;;;;8.38;3.78;;;16.00;99.90;;;;;;5055220;28;20179;-78
2023/10/13 02:42:01;;;;;;;2.45;1.90;;;16.10;99.90;;;;;;5055312;28;20537;-78
2023/10/13 02:44:27;;;;;;;2.97;1.83;;;16.10;99.90;;;;;;5054585;28;20049;-78
2023/10/13 02:46:56;;;;;;;6.28;1.25;;;16.10;99.90;;;;;;5055511;28;20037;-78
2023/10/13 02:49:26;;;;;;;3.83;1.98;;;16.10;99.90;;;;;;5054155;28;20037;-78
2023/10/13 02:51:52;;;;;;;5.65;2.70;;;16.10;99.90;;;;;;5055181;28;20045;-77
2023/10/13 02:54:18;;;;;;;2.17;1.73;;;16.30;99.90;;;;;;5055700;28;20490;-77
2023/10/13 02:56:57;;;;;;;3.22;2.10;;;16.10;99.90;;;;;;5055142;28;20541;-77
2023/10/13 02:59:40;;;;;;;1.42;1.13;;;16.10;99.90;;;;;;5055060;28;20040;-77
2023/10/13 03:02:23;;;;;;;3.53;2.67;;;16.20;99.90;;;;;;5054572;28;20569;-78
2023/10/13 03:05:08;;;;;;;2.65;1.98;;;16.10;99.90;;;;;;5053661;28;20044;-78
2023/10/13 03:07:36;;;;;;;5.18;3.20;;;16.10;99.90;;;;;;5054051;28;20041;-78
2023/10/13 03:10:09;;;;;;;1.33;1.10;;;16.10;99.90;;;;;;5054921;28;20116;-77
2023/10/13 03:12:36;;;;;;;2.95;2.10;;;16.10;99.90;;;;;;5054411;28;20044;-77
2023/10/13 03:15:20;;;;;;;2.20;1.98;;;16.40;99.90;;;;;;5053140;28;20120;-78
2023/10/13 03:17:46;;;;;;;2.35;1.92;;;16.10;99.90;;;;;;5053957;28;20053;-78
2023/10/13 03:20:15;;;;;;;1.60;1.48;;;16.10;99.90;;;;;;5056555;28;20040;-78
2023/10/13 03:22:47;;;;;;;5.40;2.80;;;16.10;99.90;;;;;;5057295;28;20057;-79
2023/10/13 03:25:23;;;;;;;1.95;1.75;;;16.10;99.90;;;;;;5056618;28;20064;-78
2023/10/13 03:30:18;;;;;;;2.05;1.33;;;16.00;99.90;;;;;;5058465;28;20041;-79
2023/10/13 03:32:47;;;;;;;3.30;1.73;;;16.00;99.90;;;;;;5055145;28;20139;-78
2023/10/13 03:35:23;;;;;;;1.27;1.17;;;16.00;99.90;;;;;;5056447;28;20041;-78
2023/10/13 03:37:49;;;;;;;3.25;1.85;;;16.00;99.90;;;;;;5056546;28;20068;-79
2023/10/13 03:43:12;;;;;;;1.73;1.23;;;16.00;99.90;;;;;;5058523;28;20040;-79
2023/10/13 03:45:47;;;;;;;1.95;1.77;;;16.10;99.90;;;;;;5050370;28;20036;-79
2023/10/13 03:51:10;;;;;;;1.65;1.40;;;16.10;99.90;;;;;;5058737;28;20106;-79
2023/10/13 03:53:56;;;;;;;2.88;1.98;;;16.10;99.90;;;;;;5058820;28;20128;-80
2023/10/13 03:56:26;;;;;;;1.80;1.00;;;16.10;99.90;;;;;;5057317;28;20102;-80
2023/10/13 03:59:06;;;;;;;4.10;1.55;;;16.10;99.90;;;;;;5059483;28;20049;-79
2023/10/13 04:04:34;;;;;;;3.00;1.15;;;16.30;99.90;;;;;;5057240;28;20055;-79
2023/10/13 04:17:27;;;;;;;0.95;0.85;;;16.10;99.90;;;;;;5057099;28;20053;-79
2023/10/13 04:31:24;;;;;;;1.92;1.48;;;16.10;99.90;;;;;;5057716;28;20461;-79
2023/10/13 04:33:56;;;;;;;3.35;1.58;;;16.10;99.90;;;;;;5056543;28;20391;-79
2023/10/13 04:39:00;;;;;;;2.42;1.33;;;16.10;99.90;;;;;;5057656;28;20045;-78
2023/10/13 04:49:29;;;;;;;1.70;1.25;;;16.10;99.90;;;;;;5059247;28;20053;-79
2023/10/13 04:52:12;;;;;;;10.60;2.00;;;16.20;99.90;;;;;;5058356;28;20049;-79
2023/10/13 05:46:49;;;;;;;0.68;0.63;;;15.90;99.90;;;;;;5054970;28;20072;-78
2023/10/13 06:29:40;;;;;;;0.25;0.25;;;15.70;99.90;;;;;;5056391;28;20053;-79
2023/10/13 06:32:12;;;;;;;0.15;0.13;;;15.80;99.90;;;;;;5055280;28;20095;-79
2023/10/13 06:34:42;;;;;;;0.40;0.40;;;15.80;99.90;;;;;;5056331;28;20037;-79
2023/10/13 06:43:11;;;;;;;0.75;0.65;;;15.80;99.90;;;;;;5031879;28;20057;-79
2023/10/13 06:45:38;;;;;;;0.88;0.25;;;15.80;99.90;;;;;;5042748;28;20056;-79
2023/10/13 06:48:05;;;;;;;0.38;0.30;;;15.70;99.90;;;;;;5058048;28;20483;-79
2023/10/13 06:50:39;;;;;;;0.70;0.45;;;15.80;99.90;;;;;;5058336;28;20402;-79
2023/10/13 06:53:04;;;;;;;0.30;0.22;;;15.90;99.90;;;;;;5060125;28;20079;-79
2023/10/13 06:55:35;;;;;;;0.00;0.00;;;15.90;99.90;;;;;;5059489;28;20053;-79
2023/10/13 06:58:01;;;;;;;0.10;0.08;;;16.10;99.90;;;;;;5060624;28;20048;-79
2023/10/13 07:00:34;;;;;;;0.28;0.28;;;16.00;99.90;;;;;;5058398;28;20090;-79
2023/10/13 07:03:10;;;;;;;0.30;0.28;;;16.00;99.90;;;;;;5058880;28;20468;-78
2023/10/13 07:05:41;;;;;;;0.73;0.70;;;16.10;99.90;;;;;;5051881;28;20466;-79
2023/10/13 07:08:08;;;;;;;0.30;0.20;;;16.10;99.90;;;;;;5058769;28;20052;-79
2023/10/13 07:11:01;;;;;;;0.32;0.15;;;16.20;99.90;;;;;;5056797;28;20063;-78
2023/10/13 07:13:28;;;;;;;3.50;1.55;;;16.10;99.90;;;;;;5056092;28;20045;-79
2023/10/13 07:15:59;;;;;;;1.10;0.60;;;16.10;99.90;;;;;;5055646;28;20037;-79
2023/10/13 07:18:26;;;;;;;1.65;0.63;;;16.10;99.90;;;;;;5053788;28;20049;-78
2023/10/13 07:20:57;;;;;;;0.40;0.40;;;16.10;99.90;;;;;;5053123;28;20041;-78
2023/10/13 07:23:24;;;;;;;0.25;0.13;;;16.10;99.90;;;;;;5054197;28;20453;-78
2023/10/13 07:25:54;;;;;;;5.32;1.30;;;16.10;99.90;;;;;;5053733;28;20045;-78
2023/10/13 07:28:21;;;;;;;0.43;0.38;;;16.10;99.90;;;;;;5056117;28;20074;-78
2023/10/13 07:31:08;;;;;;;0.40;0.40;;;16.10;99.90;;;;;;5055983;28;20547;-78
2023/10/13 07:33:34;;;;;;;0.57;0.57;;;16.10;99.90;;;;;;5057196;28;20124;-79
2023/10/13 07:36:18;;;;;;;0.30;0.20;;;16.10;99.90;;;;;;5056584;28;20091;-79
2023/10/13 07:38:49;;;;;;;0.95;0.85;;;16.10;99.90;;;;;;5056980;28;20044;-78
2023/10/13 07:41:17;;;;;;;5.25;2.22;;;16.10;99.90;;;;;;5055572;28;20045;-78
2023/10/13 07:43:48;;;;;;;0.70;0.60;;;16.10;99.90;;;;;;5055609;28;20048;-78
2023/10/13 07:46:14;;;;;;;0.43;0.38;;;16.10;99.90;;;;;;5054527;28;20513;-77
2023/10/13 07:48:40;;;;;;;0.52;0.25;;;16.00;99.90;;;;;;5054605;28;20049;-78
2023/10/13 07:51:16;;;;;;;1.08;0.93;;;16.20;99.90;;;;;;5053870;28;20037;-78
2023/10/13 07:53:44;;;;;;;0.43;0.32;;;16.00;99.90;;;;;;5053682;28;20056;-77
2023/10/13 07:56:12;;;;;;;0.17;0.15;;;16.00;99.90;;;;;;5053318;28;20075;-78
2023/10/13 07:58:52;;;;;;;0.52;0.50;;;16.00;99.90;;;;;;5053873;28;20095;-77
2023/10/13 08:01:21;;;;;;;1.35;0.73;;;16.00;99.90;;;;;;5053364;28;20047;-77
2023/10/13 08:03:47;;;;;;;0.17;0.17;;;16.00;99.90;;;;;;5053281;28;20115;-77
2023/10/13 08:08:43;;;;;;;0.00;0.00;;;16.10;99.90;;;;;;5053324;28;20064;-77
2023/10/13 08:13:56;;;;;;;0.88;0.80;;;16.10;99.90;;;;;;5046016;28;20055;-77
2023/10/13 08:16:30;;;;;;;1.95;1.58;;;16.20;99.90;;;;;;5053053;28;20052;-77
2023/10/13 08:18:56;;;;;;;0.15;0.15;;;16.10;99.90;;;;;;5053043;28;20108;-78
2023/10/13 08:21:25;;;;;;;1.55;0.90;;;16.20;99.90;;;;;;5052825;28;20478;-77
2023/10/13 08:26:29;;;;;;;0.65;0.60;;;16.30;99.90;;;;;;5052970;28;20557;-77
2023/10/13 08:28:56;;;;;;;0.10;0.10;;;16.50;99.90;;;;;;5044346;28;20486;-77
2023/10/13 08:31:22;;;;;;;0.00;0.00;;;16.30;99.90;;;;;;5052555;28;20487;-77
2023/10/13 08:33:57;;;;;;;4.55;1.85;;;16.20;99.90;;;;;;5052671;28;20102;-77
2023/10/13 08:36:30;;;;;;;0.25;0.25;;;16.30;99.90;;;;;;5053088;28;20123;-77
2023/10/13 08:38:56;;;;;;;3.22;1.25;;;16.30;99.90;;;;;;5052779;28;20175;-77
2023/10/13 08:41:29;;;;;;;0.28;0.25;;;16.40;99.90;;;;;;5052368;28;20125;-77
2023/10/13 08:44:03;;;;;;;2.58;1.27;;;16.50;99.90;;;;;;5052390;28;20076;-77
2023/10/13 08:46:38;;;;;;;0.15;0.15;;;16.40;99.90;;;;;;5053018;28;20040;-77
2023/10/13 08:49:14;;;;;;;0.70;0.50;;;16.50;99.90;;;;;;5052744;28;20064;-77
2023/10/13 08:51:43;;;;;;;0.40;0.40;;;16.50;99.90;;;;;;5052509;28;20049;-77
2023/10/13 08:54:33;;;;;;;1.17;0.77;;;16.50;99.90;;;;;;5052394;28;20516;-77
2023/10/13 08:57:19;;;;;;;0.10;0.10;;;16.60;99.90;;;;;;5052690;28;20052;-77
2023/10/13 08:59:53;;;;;;;1.25;1.00;;;16.60;99.90;;;;;;5046989;28;20041;-77
2023/10/13 09:02:22;;;;;;;2.28;1.35;;;16.60;99.90;;;;;;5052222;28;20072;-77
2023/10/13 09:05:09;;;;;;;2.83;1.77;;;16.70;99.90;;;;;;5053805;28;20047;-77
2023/10/13 09:07:47;;;;;;;3.90;0.75;;;16.70;99.90;;;;;;5048232;28;20033;-77
2023/10/13 09:10:32;;;;;;;1.20;0.65;;;16.80;99.90;;;;;;5056407;28;20044;-77
2023/10/13 09:13:01;;;;;;;5.70;1.95;;;16.90;99.90;;;;;;5083024;28;20060;-77
2023/10/13 09:18:42;;;;;;;0.85;0.73;;;17.20;99.90;;;;;;5056295;28;20206;-77
2023/10/13 09:21:29;;;;;;;0.45;0.40;;;17.20;99.90;;;;;;5050388;28;20033;-77
2023/10/13 09:24:16;;;;;;;1.25;0.73;;;17.30;94.70;;;;;;5047254;28;20094;-77
2023/10/13 09:26:41;;;;;;;0.50;0.45;;;17.30;48.90;;;;;;5055775;28;20098;-77
2023/10/13 09:29:19;;;;;;;0.70;0.28;;;17.70;1.00;;;;;;5056141;28;20048;-77
2023/10/13 09:31:48;;;;;;;11.05;2.58;;;17.30;1.00;;;;;;5055829;28;20037;-77
2023/10/13 09:34:28;;;;;;;2.17;1.45;;;17.30;1.00;;;;;;5055806;28;20044;-77
2023/10/13 09:37:04;;;;;;;0.52;0.45;;;17.40;2.50;;;;;;5055875;28;20049;-77
2023/10/13 09:39:29;;;;;;;1.50;1.27;;;17.50;23.70;;;;;;5056050;28;20041;-76
2023/10/13 09:41:56;;;;;;;14.75;1.50;;;17.60;11.00;;;;;;5055033;28;20288;-76
2023/10/13 09:44:22;;;;;;;1.33;0.90;;;17.80;1.00;;;;;;5055594;28;20048;-77
2023/10/13 09:46:49;;;;;;;0.75;0.75;;;17.80;99.90;;;;;;5055680;28;20063;-77
2023/10/13 09:49:33;;;;;;;1.27;0.65;;;17.80;99.90;;;;;;5055958;28;20041;-77
2023/10/13 09:52:02;;;;;;;0.68;0.68;;;18.00;99.90;;;;;;5055299;28;20047;-77
2023/10/13 09:54:41;;;;;;;0.30;0.30;;;18.00;99.90;;;;;;5055919;28;20567;-77
2023/10/13 09:57:24;;;;;;;1.15;0.95;;;18.10;99.90;;;;;;5055322;28;20045;-77
2023/10/13 09:59:56;;;;;;;0.32;0.32;;;18.30;92.30;;;;;;5055620;28;20406;-78
2023/10/13 10:02:25;;;;;;;6.63;2.35;;;18.10;1.00;;;;;;5055605;28;20041;-77
2023/10/13 10:05:12;;;;;;;2.90;0.22;;;18.50;99.90;;;;;;5055701;28;20036;-77
2023/10/13 10:07:39;;;;;;;0.85;0.47;;;18.20;99.90;;;;;;5047851;28;20045;-77
2023/10/13 10:10:08;;;;;;;0.40;0.40;;;18.30;92.80;;;;;;5055177;28;20498;-77
2023/10/13 10:12:40;;;;;;;1.83;1.27;;;18.40;76.70;;;;;;5054954;28;20066;-77
2023/10/13 10:15:34;;;;;;;0.47;0.47;;;18.50;1.00;;;;;;5055152;28;20057;-77
2023/10/13 10:18:00;;;;;;;2.42;1.67;;;18.60;99.90;;;;;;5055388;28;20120;-77
2023/10/13 10:20:44;;;;;;;0.55;0.38;;;18.70;1.00;;;;;;5055830;28;20124;-78
2023/10/13 10:23:21;;;;;;;1.30;0.90;;;18.80;1.00;;;;;;5053485;28;20154;-78
2023/10/13 10:25:51;;;;;;;0.95;0.75;;;18.70;1.00;;;;;;5053451;28;20117;-77
2023/10/13 10:28:17;;;;;;;0.43;0.43;;;18.90;1.00;;;;;;5054663;28;20127;-78
2023/10/13 10:30:43;;;;;;;0.40;0.35;;;18.90;99.90;;;;;;5054964;28;20064;-78
2023/10/13 10:33:13;;;;;;;2.45;1.60;;;18.80;1.00;;;;;;5054969;28;20045;-78
2023/10/13 10:35:42;;;;;;;0.52;0.32;;;18.90;99.90;;;;;;5055164;28;20045;-77
2023/10/13 10:38:32;;;;;;;2.05;1.50;;;19.10;99.90;;;;;;5055173;28;20136;-77
2023/10/13 10:41:04;;;;;;;0.38;0.35;;;19.10;99.90;;;;;;5054601;28;20079;-78
2023/10/13 10:43:47;;;;;;;8.05;1.80;;;19.20;99.90;;;;;;5054647;28;20053;-78
2023/10/13 10:46:18;;;;;;;1.08;0.73;;;19.20;99.90;;;;;;5054789;28;20498;-77
2023/10/13 10:48:45;;;;;;;3.97;1.65;;;19.20;99.90;;;;;;5054702;28;20045;-77
2023/10/13 10:53:46;;;;;;;1.23;0.77;;;19.30;99.90;;;;;;5054141;28;20053;-77
2023/10/13 10:56:20;;;;;;;6.45;1.55;;;19.30;99.90;;;;;;5051965;28;20045;-77
2023/10/13 10:58:54;;;;;;;0.57;0.52;;;19.40;99.90;;;;;;5054167;28;20037;-77
2023/10/13 11:01:21;;;;;;;1.23;1.13;;;19.90;99.90;;;;;;5054071;28;20501;-77
2023/10/13 11:03:59;;;;;;;2.08;1.20;;;19.80;99.50;;;;;;5053608;28;20045;-76
2023/10/13 11:06:26;;;;;;;1.38;0.93;;;20.00;99.90;;;;;;5054040;28;20048;-77
2023/10/13 11:09:27;;;;;;;1.50;0.82;;;20.40;99.90;;;;;;5051741;28;20048;-77
2023/10/13 11:12:05;;;;;;;3.65;1.17;;;20.40;99.90;;;;;;5047204;28;20116;-77
2023/10/13 11:14:31;;;;;;;5.18;2.10;;;20.40;99.90;;;;;;5054038;28;20048;-77
2023/10/13 11:17:04;;;;;;;0.80;0.22;;;20.60;99.90;;;;;;5054056;28;20041;-77
2023/10/13 11:19:41;;;;;;;1.38;0.43;;;20.70;99.90;;;;;;5053950;28;20041;-76
2023/10/13 11:22:32;;;;;;;0.63;0.63;;;20.60;99.90;;;;;;5053345;28;20040;-76
2023/10/13 11:25:11;;;;;;;1.85;0.85;;;20.50;99.90;;;;;;5046740;28;20033;-76
2023/10/13 11:27:55;;;;;;;0.13;0.13;;;20.40;93.30;;;;;;5052992;28;20128;-76
2023/10/13 11:30:31;;;;;;;1.15;0.95;;;20.40;99.90;;;;;;5053703;28;20098;-76
2023/10/13 11:33:08;;;;;;;3.38;1.35;;;20.30;92.10;;;;;;5044971;28;20059;-76
2023/10/13 11:38:28;;;;;;;0.50;0.50;;;20.50;12.00;;;;;;5047590;28;20529;-76
2023/10/13 11:49:48;;;;;;;2.65;0.90;;;20.30;1.00;;;;;;5053344;28;20076;-76
2023/10/13 11:52:15;;;;;;;3.67;1.05;;;20.40;1.00;;;;;;5049749;28;20052;-76
2023/10/13 11:54:41;;;;;;;1.38;0.75;;;20.40;1.00;;;;;;5052022;28;20049;-76
2023/10/13 11:57:08;;;;;;;0.30;0.30;;;20.30;1.00;;;;;;5053054;28;20053;-76
2023/10/13 11:59:36;;;;;;;3.55;1.83;;;20.30;1.00;;;;;;5053047;28;20115;-77
2023/10/13 12:04:57;;;;;;;5.05;1.88;;;20.30;1.00;;;;;;5046154;28;20445;-76
2023/10/13 12:12:23;;;;;;;2.22;1.35;;;20.50;1.00;;;;;;5051955;28;20543;-77
2023/10/13 12:14:52;;;;;;;0.57;0.40;;;20.40;1.00;;;;;;5052652;28;20041;-76
2023/10/13 12:17:24;;;;;;;4.57;1.17;;;20.30;1.00;;;;;;5052918;28;20045;-76
2023/10/13 12:19:52;;;;;;;1.13;0.77;;;20.30;1.00;;;;;;5045383;28;20037;-76
2023/10/13 12:22:26;;;;;;;0.98;0.68;;;20.30;1.00;;;;;;5052251;28;20060;-76
2023/10/13 12:24:55;;;;;;;1.00;0.90;;;20.10;1.00;;;;;;5043654;28;20049;-76
2023/10/13 12:27:23;;;;;;;0.22;0.17;;;19.90;17.20;;;;;;5052886;28;20087;-77
2023/10/13 12:29:51;;;;;;;8.00;2.20;;;19.50;99.90;;;;;;5052604;28;20049;-77
2023/10/13 12:32:25;;;;;;;1.80;1.40;;;19.10;99.90;;;;;;5052568;28;20056;-77
2023/10/13 12:35:16;;;;;;;1.13;1.00;;;19.20;1.00;;;;;;5052928;28;20402;-77
2023/10/13 12:51:20;;;;;;;1.00;0.77;;;18.70;69.20;;;;;;5052761;28;20103;-77
2023/10/13 12:53:53;;;;;;;1.38;0.55;;;18.60;99.90;;;;;;5052639;28;20096;-78
2023/10/13 12:56:26;;;;;;;0.82;0.77;;;18.50;99.90;;;;;;5044492;28;20060;-77
2023/10/13 12:58:52;;;;;;;2.13;1.60;;;18.60;1.00;;;;;;5051666;28;20044;-77
2023/10/13 13:01:21;;;;;;;11.63;1.35;;;18.60;99.90;;;;;;5052413;28;20452;-77
2023/10/13 13:03:48;;;;;;;1.15;1.05;;;18.50;99.90;;;;;;5050650;28;20037;-77
2023/10/13 13:06:29;;;;;;;0.95;0.73;;;18.50;1.00;;;;;;5051115;28;20490;-77
2023/10/13 13:08:56;;;;;;;1.15;0.77;;;18.50;1.00;;;;;;5051779;28;20386;-77
2023/10/13 13:11:23;;;;;;;15.23;1.48;;;18.50;99.90;;;;;;5051362;28;20080;-77
2023/10/13 13:13:49;;;;;;;5.68;1.58;;;18.50;99.90;;;;;;5050698;28;20059;-77
2023/10/13 13:16:19;;;;;;;9.93;2.80;;;18.50;1.00;;;;;;5051100;28;20503;-77
2023/10/13 13:18:45;;;;;;;0.60;0.35;;;18.50;1.00;;;;;;5043137;28;20037;-77
2023/10/13 13:21:21;;;;;;;8.93;0.77;;;18.20;99.90;;;;;;5050977;28;20099;-77
2023/10/13 13:23:47;;;;;;;;;;;18.40;99.90;;;;;;5042972;28;20041;-76
2023/10/13 13:26:18;;;;;;;7.18;0.47;;;18.10;99.90;;;;;;5049786;28;19921;-76
2023/10/13 13:28:51;;;;;;;0.05;0.05;;;18.00;31.20;;;;;;5050852;28;20124;-76
2023/10/13 13:31:29;;;;;;;0.43;0.43;;;18.00;99.90;;;;;;5051071;28;20044;-76
2023/10/13 13:33:55;;;;;;;1.35;1.17;;;17.90;1.00;;;;;;5050124;28;20071;-76
2023/10/13 13:36:22;;;;;;;0.90;0.88;;;18.00;1.00;;;;;;5051157;28;20091;-76
2023/10/13 13:38:54;;;;;;;6.88;2.35;;;18.10;1.00;;;;;;5050661;28;20123;-76
2023/10/13 13:41:20;;;;;;;2.20;1.20;;;17.90;99.90;;;;;;5049232;28;20107;-76
2023/10/13 13:43:54;;;;;;;3.95;1.45;;;17.80;2.10;;;;;;5049326;28;20037;-76
2023/10/13 13:46:33;;;;;;;1.23;1.13;;;17.90;1.00;;;;;;5050293;28;20490;-76
2023/10/13 13:49:00;;;;;;;2.92;2.30;;;17.80;1.00;;;;;;5050641;28;20398;-76
2023/10/13 13:51:27;;;;;;;7.00;2.25;;;17.90;1.00;;;;;;5052903;28;20410;-76
2023/10/13 13:53:57;;;;;;;0.47;0.45;;;17.90;1.00;;;;;;5053475;28;20045;-75
2023/10/13 13:56:25;;;;;;;4.22;2.30;;;18.20;99.90;;;;;;5046422;28;20053;-76
2023/10/13 13:58:53;;;;;;;0.70;0.70;;;17.50;99.90;;;;;;5054165;28;20041;-75
2023/10/13 14:01:21;;;;;;;0.65;0.52;;;17.60;99.90;;;;;;5053777;28;20495;-75
2023/10/13 14:03:50;;;;;;;0.63;0.63;;;17.60;99.90;;;;;;5053791;28;20124;-75
2023/10/13 14:06:23;;;;;;;1.25;0.90;;;17.60;99.90;;;;;;5053894;28;20401;-76
2023/10/13 14:08:51;;;;;;;5.38;0.70;;;17.80;99.90;;;;;;5053882;28;20047;-76
2023/10/13 14:12:25;;;;;;;0.10;0.10;;;17.60;39.60;;;;;;5053636;28;20045;-76
2023/10/13 14:14:28;;;;;;;0.63;0.60;;;17.50;99.90;;;;;;5052329;28;20052;-76
2023/10/13 14:17:02;;;;;;;0.77;0.73;;;17.90;1.00;;;;;;5044132;28;20048;-77
2023/10/13 14:19:28;;;;;;;0.75;0.68;;;17.40;30.60;;;;;;5050512;28;20076;-77
2023/10/13 14:21:54;;;;;;;5.65;1.90;;;17.50;99.90;;;;;;5050639;28;20350;-76
2023/10/13 14:24:27;;;;;;;5.57;1.83;;;17.60;99.90;;;;;;5050771;28;20041;-76
2023/10/13 14:27:12;;;;;;;2.67;1.30;;;17.70;99.90;;;;;;5043349;28;20049;-76
2023/10/13 14:29:44;;;;;;;2.17;0.85;;;17.70;69.00;;;;;;5050876;28;20102;-76
2023/10/13 14:32:13;;;;;;;1.35;0.98;;;17.60;99.90;;;;;;5050859;28;20029;-77
2023/10/13 14:34:48;;;;;;;2.50;1.38;;;17.70;99.90;;;;;;5050661;28;20143;-76
2023/10/13 14:37:20;;;;;;;2.00;1.50;;;17.50;99.90;;;;;;5023876;28;20526;-77
2023/10/13 14:39:46;;;;;;;5.82;1.40;;;17.50;99.90;;;;;;5010785;28;20515;-77
2023/10/13 14:42:12;;;;;;;0.68;0.43;;;17.50;99.90;;;;;;5010877;28;20045;-76
2023/10/13 14:44:37;;;;;;;29.15;1.60;;;17.50;99.90;;;;;;5009477;28;20504;-77
2023/10/13 14:47:05;;;;;;;18.00;1.23;;;17.50;1.00;;;;;;5025646;28;20046;-76
2023/10/13 14:49:31;;;;;;;1.13;0.98;;;17.60;99.90;;;;;;5004729;28;20594;-77
2023/10/13 14:51:59;;;;;;;2.88;1.17;;;17.70;99.90;;;;;;5009661;28;20041;-77
2023/10/13 14:54:33;;;;;;;1.50;1.38;;;17.70;99.90;;;;;;5008975;28;20407;-77
2023/10/13 14:57:02;;;;;;;2.58;1.67;;;17.60;99.90;;;;;;5009561;28;20054;-77
2023/10/13 14:59:38;;;;;;;2.30;0.98;;;17.70;99.90;;;;;;5009666;28;20100;-77
2023/10/13 15:02:03;;;;;;;18.27;1.73;;;17.60;99.90;;;;;;5008447;28;20076;-76
2023/10/13 15:04:32;;;;;;;1.02;0.95;;;17.60;30.10;;;;;;5007894;28;20042;-77
2023/10/13 15:07:01;;;;;;;1.40;0.88;;;17.70;56.00;;;;;;5009552;28;20085;-76
2023/10/13 15:09:27;;;;;;;1.45;0.88;;;17.70;1.00;;;;;;5007945;28;20460;-77
2023/10/13 15:11:53;;;;;;;3.63;1.73;;;17.60;1.00;;;;;;5009533;28;20422;-77
2023/10/13 15:14:25;;;;;;;9.70;2.50;;;17.60;1.00;;;;;;5009318;28;20113;-77
2023/10/13 15:16:52;;;;;;;3.45;0.73;;;17.50;99.90;;;;;;5010901;28;20042;-77
2023/10/13 15:19:18;;;;;;;0.70;0.70;;;17.40;1.00;;;;;;5009789;28;20121;-78
2023/10/13 15:21:50;;;;;;;2.47;1.52;;;17.30;99.50;;;;;;5010858;28;20853;-77
2023/10/13 15:24:21;;;;;;;1.90;1.13;;;17.30;99.90;;;;;;5010501;28;20042;-77
2023/10/13 15:26:52;;;;;;;6.45;2.00;;;17.30;99.90;;;;;;5010286;28;20507;-78
2023/10/13 15:29:24;;;;;;;0.85;0.77;;;17.30;99.90;;;;;;5010642;28;20049;-78
2023/10/13 15:34:26;;;;;;;2.55;2.35;;;17.30;99.90;;;;;;5006361;28;20141;-77
2023/10/13 15:36:54;;;;;;;6.75;3.20;;;17.70;99.90;;;;;;5008892;28;20053;-78
2023/10/13 15:39:31;;;;;;;1.77;1.15;;;17.30;99.90;;;;;;5010402;28;20499;-78
2023/10/13 15:42:02;;;;;;;3.80;1.10;;;17.30;99.90;;;;;;5011101;28;20045;-78
2023/10/13 15:44:31;;;;;;;0.55;0.55;;;17.50;99.90;;;;;;5010908;28;20061;-78
2023/10/13 15:46:57;;;;;;;3.05;0.88;;;17.20;99.90;;;;;;5010590;28;20555;-77
2023/10/13 15:49:24;;;;;;;0.98;0.88;;;17.20;99.90;;;;;;5009973;28;20082;-78
2023/10/13 15:51:49;;;;;;;3.20;1.38;;;17.20;99.90;;;;;;5010881;28;20101;-77
2023/10/13 15:54:17;;;;;;;14.18;1.15;;;17.30;99.90;;;;;;5002422;28;20106;-78
2023/10/13 15:56:43;;;;;;;3.80;2.28;;;17.10;99.90;;;;;;4974011;28;1045727;-77
2023/10/13 15:59:09;;;;;;;2.85;2.63;;;17.10;99.90;;;;;;5010312;28;20076;-77
2023/10/13 16:01:34;;;;;;;1.95;1.33;;;17.20;1.00;;;;;;5010734;28;20096;-78
2023/10/13 16:04:07;;;;;;;3.03;1.35;;;17.10;1.00;;;;;;5010771;28;20488;-77
2023/10/13 16:06:33;;;;;;;0.65;0.60;;;17.10;99.90;;;;;;5010677;28;20511;-78
2023/10/13 16:08:59;;;;;;;1.33;1.23;;;17.20;99.90;;;;;;5009144;28;20092;-77
2023/10/13 16:11:24;;;;;;;4.70;1.58;;;17.10;1.00;;;;;;5010864;28;20049;-79
2023/10/13 16:13:53;;;;;;;2.53;2.22;;;17.20;1.00;;;;;;5010998;28;20046;-77
2023/10/13 16:16:24;;;;;;;4.68;2.55;;;17.20;1.00;;;;;;5010174;28;20030;-77
2023/10/13 16:18:51;;;;;;;3.97;2.72;;;17.30;1.00;;;;;;5003415;28;20042;-77
2023/10/13 16:21:17;;;;;;;12.40;1.73;;;17.10;1.00;;;;;;5010551;28;20060;-77
2023/10/13 16:23:48;;;;;;;0.38;0.30;;;17.10;1.00;;;;;;5009881;28;20514;-78